Time;durP1;ratioP1;P1;durP2;ratioP2;P2;SDS_P1;SDS_P2;PMS_P1;PMS_P2;Temp;Humidity;BMP_temperature;BMP_pressure;BME280_temperature;BME280_humidity;BME280_pressure;Samples;Min_cycle;Max_cycle;Signal;HPM_P1;HPM_P2
2022/05/23 00:00:19;;;;;;;11.25;7.18;;;14.90;99.90;;;16.04;86.80;164760.31;4945834;29;20043;-85
2022/05/23 00:02:46;;;;;;;14.88;7.30;;;15.00;99.90;;;16.07;86.42;164769.69;4947449;29;20032;-85
2022/05/23 00:05:12;;;;;;;12.65;6.60;;;15.00;99.90;;;16.07;86.75;164769.69;4941338;28;20035;-83
2022/05/23 00:07:46;;;;;;;12.95;7.30;;;14.90;99.90;;;16.10;86.23;164777.72;4942695;29;20046;-86
2022/05/23 00:10:17;;;;;;;10.52;6.35;;;14.90;99.90;;;16.12;86.56;164781.72;4961555;28;20026;-86
2022/05/23 00:12:43;;;;;;;9.05;5.63;;;15.00;99.90;;;16.11;86.54;164780.44;4960108;29;20038;-85
2022/05/23 00:15:13;;;;;;;7.60;5.88;;;15.00;99.90;;;16.05;87.32;164764.34;4962402;28;20031;-84
2022/05/23 00:17:40;;;;;;;10.35;5.75;;;14.90;99.90;;;16.00;87.93;164749.56;4960680;29;20042;-84
2022/05/23 00:20:14;;;;;;;9.15;5.90;;;14.90;99.90;;;15.96;88.84;164740.19;4961451;29;20518;-87
2022/05/23 00:22:40;;;;;;;10.73;5.65;;;14.90;99.90;;;15.94;88.91;164734.84;4961556;29;20464;-84
2022/05/23 00:25:09;;;;;;;10.10;6.45;;;14.80;99.90;;;15.92;88.88;164729.50;4963119;28;20023;-84
2022/05/23 00:27:37;;;;;;;12.38;6.18;;;14.80;99.90;;;15.91;89.54;164725.47;4963213;28;20396;-85
2022/05/23 00:30:12;;;;;;;9.80;6.30;;;14.80;99.90;;;15.94;89.47;164734.84;4962692;28;20023;-85
2022/05/23 00:35:24;;;;;;;14.93;6.97;;;14.80;99.90;;;15.94;89.44;164734.84;4959488;28;20045;-84
2022/05/23 00:37:58;;;;;;;9.32;6.30;;;14.80;99.90;;;15.93;89.25;164732.16;4957251;29;20028;-84
2022/05/23 00:40:48;;;;;;;14.77;6.97;;;14.80;99.90;;;15.92;89.53;164729.50;4957363;29;20031;-85
2022/05/23 00:43:26;;;;;;;11.07;6.63;;;14.70;99.90;;;15.92;89.44;164728.16;4957577;29;20031;-85
2022/05/23 00:46:04;;;;;;;13.35;6.32;;;14.80;99.90;;;15.92;89.84;164729.50;4959221;28;20039;-84
2022/05/23 00:48:32;;;;;;;13.18;6.32;;;14.80;99.90;;;15.93;90.02;164732.16;4959477;28;20027;-84
2022/05/23 00:51:11;;;;;;;10.27;6.60;;;14.80;99.90;;;15.95;89.11;164737.53;4957588;29;20547;-86
2022/05/23 00:53:51;;;;;;;10.43;6.05;;;14.80;99.90;;;15.95;89.18;164737.53;4957513;29;20045;-83
2022/05/23 00:56:26;;;;;;;11.18;5.95;;;14.80;99.90;;;15.94;89.42;164734.84;4959524;28;20027;-85
2022/05/23 00:59:00;;;;;;;10.10;6.85;;;14.80;99.90;;;15.98;89.35;164744.22;4959189;28;20035;-85
2022/05/23 01:01:35;;;;;;;17.15;7.35;;;14.80;99.90;;;15.97;89.22;164742.88;4957474;29;20028;-84
2022/05/23 01:04:01;;;;;;;14.18;6.47;;;14.80;99.90;;;16.00;89.16;164750.94;4957653;29;20035;-84
2022/05/23 01:06:27;;;;;;;11.85;7.38;;;14.80;99.90;;;16.04;89.06;164760.31;4958376;28;20035;-85
2022/05/23 01:08:56;;;;;;;11.45;7.07;;;14.80;99.90;;;16.05;88.66;164764.34;4959824;28;20028;-85
2022/05/23 01:11:23;;;;;;;10.32;7.00;;;14.80;99.90;;;16.05;89.27;164763.00;4944696;29;20032;-85
2022/05/23 01:13:53;;;;;;;11.57;6.13;;;14.90;99.90;;;16.02;89.21;164754.97;4940840;29;20063;-85
2022/05/23 01:16:25;;;;;;;12.70;7.38;;;14.90;99.90;;;16.03;89.15;164757.63;4939198;28;20387;-86
2022/05/23 01:18:51;;;;;;;11.55;6.75;;;14.90;99.90;;;16.03;89.30;164758.97;4939417;29;20035;-84
2022/05/23 01:21:57;;;;;;;9.93;6.63;;;14.80;99.90;;;16.02;89.26;164754.97;4941629;29;20086;-86
2022/05/23 01:25:11;;;;;;;9.73;6.65;;;14.80;99.90;;;16.00;89.34;164750.94;4941499;29;20036;-86
2022/05/23 01:27:40;;;;;;;12.13;6.85;;;14.80;99.90;;;15.96;89.70;164738.88;4944008;29;20106;-86
2022/05/23 01:30:07;;;;;;;12.15;6.90;;;14.80;99.90;;;15.98;90.04;164744.22;4941101;29;20031;-86
2022/05/23 01:32:33;;;;;;;12.27;6.32;;;14.80;99.90;;;15.99;89.68;164746.94;4943225;29;20034;-87
2022/05/23 01:34:58;;;;;;;13.60;7.07;;;14.80;99.90;;;15.99;89.51;164748.22;4949659;29;20035;-84
2022/05/23 01:37:26;;;;;;;12.50;6.50;;;14.80;99.90;;;16.00;89.43;164749.56;4945854;28;20035;-86
2022/05/23 01:39:52;;;;;;;13.95;7.47;;;14.90;99.90;;;15.97;89.74;164742.88;4939090;28;20115;-86
2022/05/23 01:42:18;;;;;;;13.07;6.95;;;14.80;99.90;;;15.96;89.79;164740.19;4942716;29;20131;-87
2022/05/23 01:44:43;;;;;;;12.20;6.60;;;14.80;99.90;;;15.98;89.81;164744.22;4958775;28;20032;-85
2022/05/23 01:47:17;;;;;;;12.15;7.05;;;14.80;99.90;;;16.00;90.15;164750.94;4959145;28;20392;-84
2022/05/23 01:49:43;;;;;;;7.63;6.60;;;14.80;99.90;;;16.04;89.98;164761.66;4959974;28;20028;-85
2022/05/23 01:52:11;;;;;;;9.95;7.13;;;14.90;99.90;;;16.06;90.08;164765.66;4959812;28;20068;-87
2022/05/23 01:54:39;;;;;;;9.90;6.78;;;14.90;99.90;;;16.04;90.43;164760.31;4960237;28;20144;-86
2022/05/23 01:57:09;;;;;;;10.18;6.40;;;14.90;99.90;;;16.08;90.08;164771.03;4957663;28;20130;-86
2022/05/23 02:02:22;;;;;;;6.55;5.18;;;15.00;99.90;;;16.08;90.15;164771.03;4942961;29;20038;-85
2022/05/23 02:04:48;;;;;;;12.30;7.25;;;14.90;99.90;;;16.08;90.37;164771.03;4957631;28;20036;-86
2022/05/23 02:07:15;;;;;;;11.52;6.32;;;14.90;99.90;;;16.03;90.60;164758.97;4958179;28;20036;-84
2022/05/23 02:09:42;;;;;;;7.00;4.97;;;14.80;99.90;;;15.98;90.73;164744.22;4942860;29;20068;-85
2022/05/23 02:12:11;;;;;;;10.38;5.72;;;14.80;99.90;;;15.95;90.64;164737.53;4962803;28;20055;-85
2022/05/23 02:14:39;;;;;;;12.38;5.95;;;14.80;99.90;;;15.95;90.58;164737.53;4963224;28;20035;-86
2022/05/23 02:17:11;;;;;;;7.78;5.90;;;14.80;99.90;;;15.93;90.71;164732.16;4961711;28;20105;-86
2022/05/23 02:19:38;;;;;;;9.30;5.88;;;14.80;99.90;;;15.93;90.99;164732.16;4962189;29;20466;-86
2022/05/23 02:22:05;;;;;;;8.50;5.53;;;14.80;99.90;;;15.91;91.25;164726.81;4962123;29;20510;-87
2022/05/23 02:24:31;;;;;;;6.93;5.63;;;14.70;99.90;;;15.87;91.59;164716.06;4963214;28;20089;-88
2022/05/23 02:26:59;;;;;;;8.25;5.32;;;14.70;99.90;;;15.84;92.53;164708.03;4963833;28;20046;-88
2022/05/23 02:29:25;;;;;;;8.68;6.00;;;14.70;99.90;;;15.80;93.49;164698.66;4965400;28;20107;-86
2022/05/23 02:31:51;;;;;;;8.88;5.38;;;14.70;99.90;;;15.78;93.86;164693.31;4964495;29;20542;-86
2022/05/23 02:34:19;;;;;;;10.43;6.13;;;14.60;99.90;;;15.77;94.13;164689.25;4965814;29;20062;-85
2022/05/23 02:36:47;;;;;;;8.15;4.97;;;14.60;99.90;;;15.79;93.95;164694.66;4960829;28;20456;-86
2022/05/23 02:39:14;;;;;;;9.25;6.03;;;14.60;99.90;;;15.85;93.66;164710.72;4963231;29;20039;-84
2022/05/23 02:41:41;;;;;;;10.23;5.57;;;14.70;99.90;;;15.95;93.70;164737.53;4962610;28;20028;-85
2022/05/23 02:44:07;;;;;;;15.38;5.90;;;14.80;99.90;;;15.97;93.47;164742.88;4962411;29;20062;-85
2022/05/23 02:46:34;;;;;;;8.55;5.43;;;14.80;99.90;;;15.98;93.45;164745.59;4963702;28;20027;-84
2022/05/23 02:49:00;;;;;;;8.90;4.97;;;14.80;99.90;;;15.98;93.87;164744.22;4962695;29;20034;-86
2022/05/23 02:51:26;;;;;;;6.68;5.07;;;14.70;99.90;;;15.94;93.95;164733.50;4963660;29;20400;-85
2022/05/23 02:53:52;;;;;;;7.32;4.68;;;14.70;99.90;;;15.89;94.45;164720.13;4963233;29;20094;-85
2022/05/23 02:56:18;;;;;;;9.70;5.97;;;14.70;99.90;;;15.89;94.64;164720.13;4963429;28;20031;-85
2022/05/23 02:58:45;;;;;;;12.70;6.72;;;14.70;99.90;;;15.89;93.46;164721.47;4968398;28;20116;-85
2022/05/23 03:01:13;;;;;;;10.85;6.30;;;14.70;99.90;;;15.94;92.31;164733.50;4961243;29;20063;-84
2022/05/23 03:03:39;;;;;;;12.73;6.60;;;14.70;99.90;;;15.96;91.89;164740.19;4961235;28;20027;-85
2022/05/23 03:06:07;;;;;;;9.10;6.10;;;14.80;99.90;;;16.00;91.85;164750.94;4959828;28;20034;-84
2022/05/23 03:08:35;;;;;;;9.88;6.13;;;14.80;99.90;;;16.06;91.48;164765.66;4957794;29;20057;-84
2022/05/23 03:11:06;;;;;;;9.98;6.22;;;14.80;99.90;;;16.07;90.98;164768.34;4948412;28;20305;-85
2022/05/23 03:13:34;;;;;;;10.00;5.75;;;14.80;99.90;;;16.09;90.33;164773.69;4939947;29;20043;-84
2022/05/23 05:35:52;;;;;;;8.82;5.07;;;16.10;99.90;;;17.56;81.05;165164.03;5014691;28;20050;-77
2022/05/23 05:38:38;;;;;;;9.52;4.20;;;16.20;99.90;;;17.68;79.87;165197.56;5004862;28;20126;-89
2022/05/23 05:41:27;;;;;;;7.68;5.13;;;16.30;99.90;;;17.73;80.17;165210.97;4992310;28;20038;-89
2022/05/23 05:44:04;;;;;;;9.30;4.88;;;16.40;99.90;;;17.82;79.80;165235.09;4977042;28;20055;-91
2022/05/23 05:46:49;;;;;;;11.00;5.05;;;16.60;99.90;;;17.77;79.61;165220.34;4975460;28;20042;-83
2022/05/23 05:49:30;;;;;;;9.70;4.82;;;16.60;99.90;;;17.95;78.87;165268.66;4976173;28;20154;-86
2022/05/23 05:52:01;;;;;;;8.57;5.03;;;16.70;99.90;;;18.06;77.95;165296.84;4977375;28;20079;-86
2022/05/23 05:54:30;;;;;;;5.88;4.10;;;16.80;99.90;;;18.20;77.64;165335.78;4974588;28;20035;-87
2022/05/23 05:57:02;;;;;;;7.32;4.15;;;16.90;99.90;;;18.35;76.99;165374.69;4975476;28;20066;-84
2022/05/23 05:59:29;;;;;;;7.35;4.20;;;17.00;99.90;;;18.53;76.83;165423.03;4975306;28;20483;-89
2022/05/23 06:01:56;;;;;;;9.80;4.47;;;17.20;99.90;;;18.75;75.13;165480.78;4975610;28;20026;-89
2022/05/23 06:04:21;;;;;;;8.00;4.70;;;17.40;99.90;;;18.84;75.07;165506.31;4976052;28;20157;-88
2022/05/23 06:12:16;;;;;;;8.55;4.40;;;17.70;99.90;;;19.40;71.27;165655.38;4976509;28;20034;-86
2022/05/23 06:14:44;;;;;;;9.93;4.70;;;17.90;99.90;;;19.48;69.55;165674.19;4976336;28;20060;-84
2022/05/23 06:17:11;;;;;;;10.48;4.60;;;18.00;99.90;;;19.52;70.66;165686.28;4975295;28;20066;-86
2022/05/23 06:19:46;;;;;;;8.65;4.55;;;18.10;99.90;;;19.62;70.75;165713.09;4991307;28;20122;-83
2022/05/23 06:22:15;;;;;;;11.25;4.30;;;18.20;99.90;;;19.58;70.70;165701.06;4974893;28;20030;-88
2022/05/23 06:24:41;;;;;;;9.93;4.60;;;18.20;99.90;;;19.68;69.60;165729.22;4976135;28;20131;-86
2022/05/23 06:27:09;;;;;;;7.95;4.32;;;18.30;99.90;;;19.79;68.09;165758.81;4977601;28;20043;-87
2022/05/23 06:29:38;;;;;;;10.75;4.32;;;18.40;99.90;;;20.16;68.15;165855.53;4995523;28;20046;-86
2022/05/23 06:32:05;;;;;;;8.57;4.57;;;18.80;99.90;;;20.54;66.20;165956.34;4978989;28;20053;-90
2022/05/23 06:34:31;;;;;;;8.10;4.35;;;19.10;99.90;;;20.68;66.81;165994.00;4994449;28;20479;-85
2022/05/23 06:36:59;;;;;;;9.77;3.85;;;19.20;99.90;;;20.95;65.85;166066.56;4995587;28;20093;-86
2022/05/23 06:39:25;;;;;;;5.82;3.05;;;19.50;99.90;;;21.23;64.49;166141.88;4979389;28;20030;-83
2022/05/23 06:41:52;;;;;;;5.22;2.67;;;19.70;99.90;;;21.14;59.50;166116.34;4980316;28;20035;-88
2022/05/23 06:44:18;;;;;;;5.25;2.58;;;19.80;99.90;;;21.47;57.95;166206.44;4978582;28;20034;-87
2022/05/23 06:46:46;;;;;;;5.40;2.33;;;20.10;99.90;;;21.55;55.78;166227.94;4979285;28;20031;-87
2022/05/23 06:49:13;;;;;;;7.75;2.78;;;20.20;99.90;;;21.69;54.92;166262.91;4991760;28;20046;-80
2022/05/23 06:51:40;;;;;;;5.28;2.78;;;20.40;99.90;;;21.98;54.11;166340.97;5012205;28;20062;-88
2022/05/23 06:54:06;;;;;;;4.10;2.20;;;20.50;99.90;;;21.90;53.43;166319.41;4980600;28;20062;-86
2022/05/23 06:56:32;;;;;;;5.53;2.20;;;20.60;99.90;;;21.85;53.93;166305.94;4994777;28;20035;-87
2022/05/23 06:59:01;;;;;;;6.07;2.28;;;20.70;99.90;;;22.25;54.17;166412.25;4979156;28;20121;-84
2022/05/23 07:01:26;;;;;;;7.32;2.10;;;20.90;99.90;;;22.57;52.66;166498.38;4978525;28;20042;-88
2022/05/23 07:03:52;;;;;;;8.73;2.88;;;21.10;99.90;;;22.43;51.05;166460.66;4980413;28;20027;-87
2022/05/23 07:14:34;;;;;;;5.78;2.20;;;21.60;96.90;;;22.68;50.27;166527.97;4963626;29;20038;-89
2022/05/23 07:24:48;;;;;;;5.38;2.17;;;21.50;97.20;;;22.88;50.58;166581.81;5028417;23;20043;-83
2022/05/23 07:27:15;;;;;;;4.75;2.22;;;21.50;96.90;;;22.83;50.11;166568.34;4961606;28;20106;-83
2022/05/23 07:30:28;;;;;;;4.82;2.40;;;21.60;95.10;;;23.04;50.06;166624.88;4993723;28;20038;-84
2022/05/23 07:33:04;;;;;;;2.45;1.55;;;21.70;96.30;;;23.40;49.34;166720.50;4997634;28;20058;-88
2022/05/23 07:35:34;;;;;;;3.25;2.03;;;21.90;93.90;;;23.55;49.37;166760.88;4977015;28;20034;-87
2022/05/23 07:38:05;;;;;;;5.13;2.42;;;22.00;94.50;;;23.45;49.08;166732.59;4997579;28;20094;-90
2022/05/23 07:40:32;;;;;;;5.47;2.28;;;22.10;93.20;;;23.71;48.68;166801.22;4998260;28;20037;-91
2022/05/23 07:42:58;;;;;;;4.40;2.08;;;22.20;93.10;;;23.88;48.34;166847.03;4984253;28;20031;-91
2022/05/23 07:45:24;;;;;;;4.50;2.35;;;22.30;92.50;;;24.04;49.43;166891.47;4999750;28;20595;-86
2022/05/23 07:47:50;;;;;;;6.50;2.42;;;22.40;95.00;;;24.08;47.91;166902.19;4994803;28;20378;-88
2022/05/23 07:50:21;;;;;;;4.75;2.08;;;22.60;91.80;;;24.50;47.40;167014.03;4977727;28;20110;-86
2022/05/23 08:01:04;;;;;;;5.45;1.95;;;23.50;85.10;;;25.14;46.11;167185.16;4982619;28;20062;-87
2022/05/23 08:03:30;;;;;;;3.40;1.92;;;23.70;85.10;;;24.93;46.71;167127.22;4994642;28;20039;-86
2022/05/23 08:05:58;;;;;;;4.05;2.30;;;23.60;84.60;;;25.26;46.02;167214.81;4978103;28;20034;-85
2022/05/23 08:08:26;;;;;;;7.20;2.38;;;23.70;84.40;;;25.59;46.17;167305.13;4978547;28;20479;-88
2022/05/23 08:10:54;;;;;;;5.15;2.15;;;23.90;84.70;;;25.64;44.79;167317.25;4992792;28;20041;-86
2022/05/23 08:13:27;;;;;;;8.05;2.15;;;23.90;81.50;;;25.76;45.67;167349.59;4977301;28;20054;-86
2022/05/23 08:15:55;;;;;;;8.07;2.08;;;24.00;83.00;;;25.78;44.88;167355.00;4977253;28;20450;-88
2022/05/23 08:18:21;;;;;;;5.90;2.08;;;24.00;81.10;;;25.75;44.81;167345.56;4976667;28;20046;-90
2022/05/23 08:20:49;;;;;;;7.78;2.60;;;24.10;79.70;;;26.01;44.36;167415.63;4975593;28;20035;-87
2022/05/23 08:23:15;;;;;;;5.47;2.03;;;24.30;79.00;;;25.72;43.06;167337.50;4975507;28;20069;-86
2022/05/23 08:25:41;;;;;;;6.47;2.00;;;24.30;74.90;;;25.61;44.51;167310.53;4976106;28;20023;-88
2022/05/23 08:28:07;;;;;;;5.50;1.98;;;24.20;76.40;;;25.96;44.60;167403.53;4977431;28;20046;-85
2022/05/23 08:30:33;;;;;;;6.10;1.95;;;24.30;78.20;;;26.24;44.10;167476.31;4976966;28;20027;-87
2022/05/23 08:32:59;;;;;;;3.67;1.73;;;24.60;77.50;;;26.47;43.76;167539.72;4977006;28;20467;-86
2022/05/23 08:35:27;;;;;;;6.40;2.22;;;24.80;76.80;;;25.96;44.18;167403.53;4977491;28;20034;-88
2022/05/23 08:37:54;;;;;;;4.07;1.95;;;24.60;75.50;;;25.66;44.55;167324.00;4978327;28;20031;-86
2022/05/23 08:41:08;;;;;;;3.13;1.70;;;24.30;74.80;;;25.52;44.14;167286.28;4977696;28;20050;-89
2022/05/23 08:44:05;;;;;;;5.47;2.00;;;24.00;75.60;;;25.49;45.61;167276.78;4977723;28;20037;-92
2022/05/23 08:47:03;;;;;;;3.75;1.80;;;24.00;78.00;;;25.39;45.12;167249.84;4976892;28;20035;-84
2022/05/23 08:50:14;;;;;;;4.35;1.73;;;24.00;76.20;;;25.71;44.56;167334.78;4976802;28;20027;-90
2022/05/23 08:53:00;;;;;;;3.78;1.63;;;24.10;77.10;;;25.54;44.52;167290.31;4978652;28;20023;-89
2022/05/23 08:55:39;;;;;;;;;;;24.00;75.50;;;24.77;45.44;167085.44;4981894;28;20078;-80
2022/05/23 08:58:21;;;;;;;2.70;1.80;;;23.60;75.50;;;24.77;45.93;167084.06;4996254;28;19918;-82
2022/05/23 09:00:59;;;;;;;4.80;2.00;;;23.50;76.30;;;24.73;46.26;167073.28;4978064;28;20054;-88
2022/05/23 09:03:48;;;;;;;2.75;1.70;;;23.40;78.30;;;25.13;46.13;167182.47;4990284;28;20514;-87
2022/05/23 09:06:34;;;;;;;3.10;1.58;;;23.60;80.00;;;26.18;44.54;167462.88;4991229;28;20058;-89
2022/05/23 09:09:10;;;;;;;2.95;1.70;;;24.30;79.00;;;26.31;43.18;167495.22;4974815;28;20030;-89
2022/05/23 09:12:06;;;;;;;4.20;1.60;;;24.60;74.70;;;26.63;43.32;167582.84;4974986;28;20122;-89
2022/05/23 09:14:32;;;;;;;5.75;1.70;;;24.80;73.30;;;27.10;42.41;167706.97;4975156;28;20034;-90
2022/05/23 09:17:01;;;;;;;2.45;1.70;;;25.30;73.00;;;27.47;42.39;167805.47;4991427;28;20042;-85
2022/05/23 09:19:56;;;;;;;5.07;2.17;;;25.70;73.60;;;28.22;40.39;168006.53;4975117;28;20041;-88
2022/05/23 09:22:47;;;;;;;5.18;1.58;;;26.10;69.40;;;28.69;38.45;168133.44;4991637;28;20121;-87
2022/05/23 09:25:26;;;;;;;4.35;1.65;;;26.70;66.20;;;29.14;38.43;168253.56;4975688;28;20033;-84
2022/05/23 09:28:34;;;;;;;6.93;1.90;;;27.10;66.10;;;29.44;37.80;168331.91;4975067;28;20062;-87
2022/05/23 09:31:15;;;;;;;3.80;1.98;;;27.40;64.40;;;29.21;37.94;168272.47;4992247;28;20073;-87
2022/05/23 09:33:48;;;;;;;4.57;1.52;;;27.50;62.80;;;29.10;38.11;168241.38;4976309;28;20031;-87
2022/05/23 09:36:34;;;;;;;5.72;2.40;;;27.40;62.50;;;29.37;39.74;168314.38;4980759;28;20502;-87
2022/05/23 09:39:24;;;;;;;;;;;27.60;64.50;;;29.51;38.30;168352.13;4992262;28;20039;-89
2022/05/23 09:47:48;;;;;;;4.57;1.98;;;27.70;62.10;;;28.18;40.47;167995.72;4978074;28;20113;-85
2022/05/23 09:50:36;;;;;;;3.63;1.80;;;27.00;63.50;;;28.62;39.58;168114.47;4976105;28;20026;-87
2022/05/23 09:53:05;;;;;;;4.18;1.90;;;27.10;63.90;;;29.01;37.99;168217.09;4975823;28;20027;-88
2022/05/23 09:55:37;;;;;;;5.20;1.80;;;27.30;61.70;;;28.49;38.94;168079.38;4976104;28;20027;-87
2022/05/23 09:58:13;;;;;;;5.03;1.75;;;27.20;62.10;;;27.91;39.80;167922.81;4975892;28;20023;-86
2022/05/23 10:01:04;;;;;;;4.68;1.85;;;26.80;63.00;;;28.68;39.24;168129.34;4975838;28;20121;-85
2022/05/23 10:03:46;;;;;;;3.60;1.67;;;27.10;63.00;;;28.42;39.15;168060.47;5001535;28;20102;-88
2022/05/23 10:06:13;;;;;;;5.68;2.15;;;26.80;62.30;;;27.94;40.75;167932.25;4991976;28;20031;-86
2022/05/23 10:08:50;;;;;;;3.90;1.58;;;26.40;65.10;;;27.84;41.65;167903.97;5009914;28;20058;-87
2022/05/23 10:11:29;;;;;;;4.40;1.95;;;26.40;66.30;;;28.47;39.80;168072.66;4987800;28;20035;-86
2022/05/23 10:14:05;;;;;;;4.43;1.67;;;26.80;64.40;;;29.10;39.71;168241.38;4984277;28;20097;-89
2022/05/23 10:16:56;;;;;;;5.15;2.03;;;27.40;63.60;;;29.48;38.38;168342.69;4982492;28;20026;-86
2022/05/23 10:19:36;;;;;;;6.82;1.90;;;27.80;62.70;;;29.41;37.04;168325.13;4998545;28;20090;-88
2022/05/23 10:22:23;;;;;;;4.68;1.80;;;28.00;59.80;;;28.73;39.51;168142.88;4983814;28;20533;-88
2022/05/23 10:25:06;;;;;;;7.53;1.98;;;27.60;60.40;;;27.97;40.03;167940.34;4986281;28;20035;-84
2022/05/23 10:28:11;;;;;;;4.28;1.60;;;27.20;61.70;;;28.70;39.57;168134.78;4981649;28;20034;-88
2022/05/23 10:30:58;;;;;;;3.45;2.03;;;27.50;61.60;;;29.56;38.31;168364.31;4981819;28;20070;-88
2022/05/23 10:33:30;;;;;;;3.60;1.63;;;27.90;61.40;;;29.67;37.25;168394.00;4999374;28;20165;-87
2022/05/23 10:36:30;;;;;;;3.75;1.50;;;28.10;60.00;;;28.62;39.13;168114.47;4984015;28;20110;-89
2022/05/23 10:42:10;;;;;;;5.13;1.73;;;27.10;60.10;;;27.58;40.53;167836.47;4988131;28;20280;-86
2022/05/23 10:45:36;;;;;;;4.38;1.98;;;26.50;62.00;;;27.53;41.82;167823.00;4998991;28;20050;-87
2022/05/23 10:48:59;;;;;;;4.13;1.45;;;26.20;64.50;;;27.57;41.30;167832.44;4986759;28;20038;-86
2022/05/23 10:52:10;;;;;;;2.65;1.55;;;26.10;65.00;;;27.20;40.44;167735.25;4984723;28;20376;-88
2022/05/23 10:54:59;;;;;;;4.50;1.27;;;26.00;64.10;;;27.33;40.45;167768.97;5014733;28;20123;-84
2022/05/23 10:58:02;;;;;;;6.00;1.73;;;26.00;63.70;;;27.45;41.19;167800.09;4998654;28;20023;-84
2022/05/23 11:01:03;;;;;;;4.32;2.13;;;26.10;64.20;;;28.03;40.51;167956.53;4989838;28;20186;-89
2022/05/23 11:04:04;;;;;;;5.88;1.60;;;26.60;64.00;;;28.84;37.73;168171.19;4993457;28;20031;-84
2022/05/23 11:06:43;;;;;;;3.92;1.67;;;27.20;61.30;;;29.61;37.51;168379.16;5014876;28;20074;-87
2022/05/23 11:10:02;;;;;;;5.90;1.73;;;27.80;60.80;;;29.24;37.18;168280.63;4996532;28;20049;-87
2022/05/23 11:12:48;;;;;;;6.80;2.00;;;28.10;59.70;;;28.73;37.87;168142.88;4982615;28;20065;-88
2022/05/23 11:16:24;;;;;;;5.70;2.00;;;27.70;58.60;;;28.37;38.64;168047.00;4993154;28;20057;-87
2022/05/23 11:19:21;;;;;;;9.75;1.60;;;27.30;58.70;;;28.64;39.40;168118.56;4995165;28;20027;-89
2022/05/23 11:22:08;;;;;;;9.82;1.70;;;27.50;60.50;;;28.22;37.71;168007.84;4994059;28;20031;-87
2022/05/23 11:25:00;;;;;;;6.93;2.17;;;27.40;57.90;;;28.70;38.43;168134.78;4979306;28;20038;-86
2022/05/23 11:33:49;;;;;;;4.43;1.48;;;27.80;59.30;;;29.33;37.42;168302.19;4979302;28;20069;-88
2022/05/23 11:36:44;;;;;;;5.38;1.40;;;28.10;58.90;;;29.64;37.62;168387.25;4979771;28;20406;-88
2022/05/23 11:40:10;;;;;;;6.03;1.90;;;28.20;58.90;;;29.78;36.32;168425.06;4980412;28;20039;-87
2022/05/23 11:43:05;;;;;;;4.68;2.30;;;28.30;58.80;;;29.11;37.66;168245.47;4977885;28;20048;-86
2022/05/23 11:46:00;;;;;;;5.60;2.28;;;28.10;59.00;;;29.47;37.17;168340.00;4995508;28;20483;-87
2022/05/23 11:48:54;;;;;;;5.40;2.20;;;28.20;58.60;;;29.54;36.45;168360.25;4980648;28;20509;-86
2022/05/23 11:51:24;;;;;;;6.10;2.53;;;28.40;57.50;;;29.55;36.96;168362.94;4995698;28;20034;-87
2022/05/23 11:54:00;;;;;;;4.38;2.00;;;28.20;57.70;;;29.42;38.06;168326.47;4995237;28;20027;-85
2022/05/23 11:57:00;;;;;;;4.03;1.45;;;28.10;59.40;;;28.87;38.67;168180.66;4995990;28;20034;-86
2022/05/23 11:59:26;;;;;;;7.65;2.20;;;27.80;59.00;;;29.05;38.99;168229.28;4995526;28;20026;-86
2022/05/23 12:02:09;;;;;;;11.10;2.33;;;27.60;60.50;;;28.87;39.82;168179.28;4997123;28;20035;-87
2022/05/23 12:04:55;;;;;;;5.22;1.67;;;27.60;61.70;;;28.69;38.83;168132.06;4995908;28;20533;-89
2022/05/23 12:07:37;;;;;;;;;;;27.60;59.80;;;29.42;40.04;168327.84;4998540;28;20043;-86
2022/05/23 12:10:24;;;;;;;4.35;1.55;;;27.90;62.00;;;29.13;40.74;168250.84;4980674;28;19921;-87
2022/05/23 12:13:11;;;;;;;4.65;2.00;;;27.90;62.80;;;29.25;41.45;168281.97;4995195;28;20047;-88
2022/05/23 12:15:44;;;;;;;4.80;1.50;;;28.00;63.70;;;29.51;40.08;168350.81;4995252;28;20041;-86
2022/05/23 12:18:20;;;;;;;5.38;1.73;;;28.20;62.00;;;29.91;39.65;168457.53;4995276;28;20039;-87
2022/05/23 12:20:59;;;;;;;2.40;1.55;;;28.50;61.70;;;29.73;40.36;168410.25;4995434;28;20053;-89
2022/05/23 12:23:44;;;;;;;4.13;1.50;;;28.40;62.00;;;30.07;39.29;168502.09;4978632;28;20039;-86
2022/05/23 12:26:12;;;;;;;4.70;1.60;;;28.50;61.90;;;29.50;39.82;168349.47;4978105;28;20029;-88
2022/05/23 12:29:28;;;;;;;1.83;1.40;;;28.20;61.20;;;29.23;40.74;168277.84;4994390;28;20062;-86
2022/05/23 12:32:32;;;;;;;5.13;2.13;;;27.90;63.60;;;29.65;41.13;168388.59;4993395;28;20022;-87
2022/05/23 12:35:08;;;;;;;6.32;1.63;;;28.10;64.90;;;30.38;39.47;168583.09;4979845;28;20493;-87
2022/05/23 12:38:08;;;;;;;3.03;2.10;;;28.60;62.60;;;29.86;39.40;168445.41;4978741;28;20037;-89
2022/05/23 12:41:12;;;;;;;4.28;1.75;;;28.80;60.50;;;30.07;40.35;168500.72;4961238;28;20043;-88
2022/05/23 12:44:51;;;;;;;5.53;1.60;;;28.90;62.90;;;30.19;39.31;168533.13;4978687;28;20031;-87
2022/05/23 12:48:06;;;;;;;4.60;1.50;;;28.80;61.00;;;30.11;40.24;168512.91;4978716;28;20390;-88
2022/05/23 12:51:26;;;;;;;3.60;1.60;;;28.90;61.80;;;29.43;41.25;168330.56;4992372;28;20113;-88
2022/05/23 12:54:33;;;;;;;4.97;1.60;;;28.40;63.60;;;29.44;41.64;168331.91;4976429;28;20031;-88
2022/05/23 12:57:26;;;;;;;3.63;1.73;;;28.30;63.20;;;29.51;40.60;168352.13;4992886;28;20029;-89
2022/05/23 13:00:13;;;;;;;3.13;1.55;;;28.20;62.00;;;30.05;41.47;168496.72;4993122;28;20035;-87
2022/05/23 13:03:26;;;;;;;3.85;1.48;;;28.50;65.00;;;30.39;40.54;168585.81;4978182;28;20042;-90
2022/05/23 13:06:16;;;;;;;4.22;1.60;;;28.80;63.00;;;29.90;41.27;168454.81;4977473;28;20398;-89
2022/05/23 13:09:00;;;;;;;5.95;2.20;;;28.70;62.80;;;28.97;42.01;168207.66;4976131;28;20042;-88
2022/05/23 13:11:49;;;;;;;3.35;1.83;;;28.20;63.60;;;28.61;43.52;168111.75;4982934;28;20034;-85
2022/05/23 13:14:18;;;;;;;4.05;1.67;;;27.70;65.40;;;28.54;43.44;168091.56;4994287;28;20088;-84
2022/05/23 13:16:57;;;;;;;4.53;1.65;;;27.40;66.00;;;28.54;44.33;168091.56;4993020;28;20027;-88
2022/05/23 13:22:24;;;;;;;4.95;2.10;;;26.60;68.30;;;27.35;46.92;167774.41;4979507;28;20407;-86
2022/05/23 13:25:00;;;;;;;3.33;1.83;;;26.20;70.90;;;26.93;47.32;167661.13;4979373;28;20093;-87
2022/05/23 13:27:43;;;;;;;3.05;1.80;;;25.80;71.10;;;26.96;48.27;167670.56;4979948;28;20583;-88
2022/05/23 13:30:24;;;;;;;4.13;1.90;;;25.60;73.20;;;26.27;49.40;167484.41;4994293;28;20406;-84
2022/05/23 13:33:16;;;;;;;6.35;1.75;;;25.40;74.40;;;26.45;50.55;167532.97;4976908;28;20034;-87
2022/05/23 13:35:46;;;;;;;4.00;1.92;;;25.20;77.60;;;26.41;50.88;167522.19;4976817;28;20031;-89
2022/05/23 13:38:21;;;;;;;3.83;1.83;;;25.20;79.90;;;26.18;51.63;167461.50;4974685;28;20037;-88
2022/05/23 13:41:00;;;;;;;;;;;25.00;81.50;;;26.02;52.36;167419.69;4975155;28;20399;-88
2022/05/23 13:43:41;;;;;;;7.03;2.20;;;24.90;84.40;;;25.92;52.87;167392.72;4991950;28;19921;-87
2022/05/23 13:46:32;;;;;;;7.07;2.58;;;24.80;88.60;;;25.77;53.89;167352.31;4991960;28;20035;-87
2022/05/23 13:49:18;;;;;;;4.70;2.25;;;24.60;91.60;;;25.33;55.74;167235.03;4975767;28;20027;-86
2022/05/23 13:52:01;;;;;;;3.78;2.22;;;24.40;95.40;;;25.06;55.82;167163.63;4977159;28;20027;-88
2022/05/23 13:55:00;;;;;;;4.85;2.17;;;24.20;97.70;;;25.04;55.99;167156.88;4975504;28;20037;-86
2022/05/23 13:57:39;;;;;;;5.10;2.55;;;24.00;99.80;;;24.96;56.22;167136.66;4974866;28;20486;-86
2022/05/23 14:00:20;;;;;;;5.55;2.53;;;24.00;99.90;;;24.94;57.40;167131.28;4990486;28;20042;-88
2022/05/23 14:03:09;;;;;;;6.38;2.63;;;23.90;99.90;;;25.14;57.60;167183.84;4974959;28;20184;-84
2022/05/23 14:05:46;;;;;;;4.95;2.47;;;23.90;99.90;;;25.09;57.95;167170.34;4973900;28;20035;-85
2022/05/23 14:08:23;;;;;;;8.02;2.50;;;24.00;99.90;;;25.19;57.64;167197.28;4976110;28;20037;-88
2022/05/23 14:10:50;;;;;;;4.72;2.47;;;24.00;99.90;;;24.84;59.03;167103.00;4975353;28;20034;-89